Time;durP1;ratioP1;P1;durP2;ratioP2;P2;SDS_P1;SDS_P2;PMS_P1;PMS_P2;Temp;Humidity;BMP_temperature;BMP_pressure;BME280_temperature;BME280_humidity;BME280_pressure;Samples;Min_cycle;Max_cycle;Signal;HPM_P1;HPM_P2
2022/08/15 00:00:44;;;;;;;5.65;2.05;;;27.80;99.90;;;;;;4994255;28;20125;-52
2022/08/15 00:03:32;;;;;;;5.72;2.40;;;27.80;99.90;;;;;;4993859;28;20070;-51
2022/08/15 00:06:03;;;;;;;7.53;2.20;;;27.70;99.90;;;;;;4993868;28;20028;-52
2022/08/15 00:08:32;;;;;;;7.18;2.50;;;27.70;99.90;;;;;;4993738;28;20027;-52
2022/08/15 00:11:07;;;;;;;5.18;2.00;;;27.70;99.90;;;;;;4993719;28;20034;-51
2022/08/15 00:13:33;;;;;;;5.50;1.70;;;27.70;99.90;;;;;;4993439;28;20034;-52
2022/08/15 00:15:59;;;;;;;7.65;2.10;;;27.70;99.90;;;;;;4992143;28;20054;-51
2022/08/15 00:18:27;;;;;;;5.25;2.25;;;27.70;99.90;;;;;;4993574;28;20061;-52
2022/08/15 00:20:53;;;;;;;6.80;1.88;;;27.70;99.90;;;;;;5008362;28;20491;-52
2022/08/15 00:23:22;;;;;;;4.57;1.60;;;27.70;99.90;;;;;;4992405;28;20390;-53
2022/08/15 00:25:50;;;;;;;9.65;2.88;;;27.70;99.90;;;;;;4993490;28;20105;-52
2022/08/15 00:28:17;;;;;;;7.82;1.83;;;27.70;99.90;;;;;;4993316;28;20171;-52
2022/08/15 00:30:44;;;;;;;6.70;2.00;;;27.70;99.90;;;;;;4993080;28;20030;-52
2022/08/15 00:33:11;;;;;;;7.28;2.15;;;27.70;99.90;;;;;;4993065;28;20093;-53
2022/08/15 00:35:42;;;;;;;4.70;2.45;;;27.70;99.90;;;;;;4993194;28;20026;-53
2022/08/15 00:38:12;;;;;;;6.25;1.75;;;27.70;99.90;;;;;;4993050;28;20039;-52
2022/08/15 00:43:32;;;;;;;5.97;2.25;;;27.70;99.90;;;;;;4993224;28;20033;-53
2022/08/15 00:45:59;;;;;;;7.43;1.95;;;27.70;99.90;;;;;;4992987;28;20034;-52
2022/08/15 00:48:41;;;;;;;3.63;1.73;;;27.70;99.90;;;;;;4992855;28;20088;-52
2022/08/15 00:51:15;;;;;;;7.30;2.25;;;27.70;99.90;;;;;;4992943;28;20046;-52
2022/08/15 00:53:45;;;;;;;5.07;2.00;;;27.70;99.90;;;;;;4993000;28;20029;-52
2022/08/15 00:56:12;;;;;;;8.07;1.92;;;27.70;99.90;;;;;;4992984;28;20042;-52
2022/08/15 00:58:41;;;;;;;9.30;2.10;;;27.80;99.90;;;;;;4992768;28;20026;-52
2022/08/15 01:01:10;;;;;;;5.18;1.88;;;27.80;99.90;;;;;;4993158;28;20078;-52
2022/08/15 01:03:40;;;;;;;5.75;1.90;;;27.80;99.90;;;;;;4992532;28;20031;-52
2022/08/15 01:06:07;;;;;;;2.20;1.88;;;27.80;99.90;;;;;;4992644;28;20438;-52
2022/08/15 01:08:35;;;;;;;8.85;2.40;;;27.80;99.90;;;;;;4992497;28;20022;-53
2022/08/15 01:11:15;;;;;;;9.43;2.40;;;27.80;99.90;;;;;;4992360;28;20522;-54
2022/08/15 01:13:41;;;;;;;5.68;2.10;;;27.80;99.90;;;;;;4992626;28;20023;-53
2022/08/15 01:16:07;;;;;;;7.53;2.17;;;27.70;99.90;;;;;;4992422;28;20037;-52
2022/08/15 01:18:34;;;;;;;7.72;2.78;;;27.70;99.90;;;;;;4992557;28;20048;-53
2022/08/15 01:21:06;;;;;;;5.70;2.53;;;27.70;99.90;;;;;;4991146;28;20431;-53
2022/08/15 01:23:45;;;;;;;7.10;2.25;;;27.70;99.90;;;;;;4992292;28;20038;-53
2022/08/15 01:26:13;;;;;;;5.53;1.90;;;27.70;99.90;;;;;;4992318;28;20026;-53
2022/08/15 01:28:46;;;;;;;6.22;2.25;;;27.70;99.90;;;;;;4990984;28;20031;-53
2022/08/15 01:31:18;;;;;;;4.38;2.00;;;27.60;99.90;;;;;;4992172;28;20265;-53
2022/08/15 01:33:50;;;;;;;4.95;2.13;;;27.60;99.90;;;;;;4992214;28;20037;-53
2022/08/15 01:36:18;;;;;;;5.78;1.80;;;27.60;99.90;;;;;;4992072;28;20050;-52
2022/08/15 01:38:50;;;;;;;10.25;2.50;;;27.60;99.90;;;;;;4992163;28;20164;-53
2022/08/15 01:41:53;;;;;;;4.07;1.83;;;27.60;99.90;;;;;;4992411;28;20105;-52
2022/08/15 01:44:20;;;;;;;9.35;2.35;;;27.60;99.90;;;;;;4992049;28;20022;-52
2022/08/15 01:46:55;;;;;;;6.15;2.63;;;27.60;99.90;;;;;;4991968;28;20129;-52
2022/08/15 01:49:35;;;;;;;4.22;2.00;;;27.60;99.90;;;;;;4991762;28;20035;-53
2022/08/15 01:52:04;;;;;;;6.50;2.80;;;27.60;99.90;;;;;;4991914;28;20034;-52
2022/08/15 01:54:35;;;;;;;6.70;2.78;;;27.60;99.90;;;;;;4991927;28;20093;-53
2022/08/15 01:57:03;;;;;;;7.35;2.92;;;27.60;99.90;;;;;;4991783;28;20088;-52
2022/08/15 01:59:29;;;;;;;6.18;2.35;;;27.50;99.90;;;;;;4992183;28;20018;-52
2022/08/15 02:01:59;;;;;;;7.43;2.15;;;27.50;99.90;;;;;;4992047;28;20101;-52
2022/08/15 02:04:34;;;;;;;6.20;2.13;;;27.50;99.90;;;;;;4991935;28;20037;-52
2022/08/15 02:07:06;;;;;;;5.20;2.10;;;27.50;99.90;;;;;;4991808;28;20030;-53
2022/08/15 02:09:32;;;;;;;9.68;1.85;;;27.50;99.90;;;;;;4991718;28;20034;-52
2022/08/15 02:12:02;;;;;;;8.35;2.20;;;27.40;99.90;;;;;;4991909;28;20026;-53
2022/08/15 02:14:30;;;;;;;7.60;2.17;;;27.40;99.90;;;;;;4991943;28;20045;-53
2022/08/15 02:16:56;;;;;;;7.25;2.25;;;27.50;99.90;;;;;;4991835;28;20030;-52
2022/08/15 02:19:22;;;;;;;5.20;1.98;;;27.40;99.90;;;;;;4991567;28;20042;-52
2022/08/15 02:21:48;;;;;;;8.02;2.33;;;27.40;99.90;;;;;;4991718;28;20030;-52
2022/08/15 02:24:21;;;;;;;4.45;2.10;;;27.40;99.90;;;;;;4991689;28;20031;-52
2022/08/15 02:26:49;;;;;;;6.38;2.08;;;27.40;99.90;;;;;;4991629;28;20027;-52
2022/08/15 02:29:15;;;;;;;5.32;1.77;;;27.40;99.90;;;;;;4991525;28;20041;-53
2022/08/15 02:31:42;;;;;;;6.05;2.20;;;27.40;99.90;;;;;;4990147;28;20026;-53
2022/08/15 02:34:09;;;;;;;8.47;2.53;;;27.40;99.90;;;;;;4991529;28;20505;-53
2022/08/15 02:36:37;;;;;;;9.18;2.65;;;27.40;99.90;;;;;;4991466;28;20030;-52
2022/08/15 02:39:08;;;;;;;4.35;2.22;;;27.30;99.90;;;;;;4991611;28;20027;-52
2022/08/15 02:41:50;;;;;;;4.65;2.25;;;27.30;99.90;;;;;;4990254;28;20168;-52
2022/08/15 02:44:21;;;;;;;4.68;2.00;;;27.30;99.90;;;;;;4991466;28;20475;-52
2022/08/15 02:46:49;;;;;;;4.97;1.90;;;27.30;99.90;;;;;;4992194;28;20161;-52
2022/08/15 02:49:18;;;;;;;5.82;2.63;;;27.20;99.90;;;;;;4995137;28;20034;-52
2022/08/15 02:51:46;;;;;;;4.45;2.17;;;27.30;99.90;;;;;;4995102;28;20105;-52
2022/08/15 02:54:14;;;;;;;3.10;1.85;;;27.30;99.90;;;;;;4995013;28;20030;-52
2022/08/15 02:56:39;;;;;;;5.80;1.75;;;27.40;99.90;;;;;;4994815;28;20029;-52
2022/08/15 03:01:51;;;;;;;5.90;1.85;;;27.40;99.90;;;;;;4993325;28;20065;-50
2022/08/15 03:04:20;;;;;;;4.80;1.98;;;27.40;99.90;;;;;;4994747;28;20105;-50
2022/08/15 03:06:46;;;;;;;8.43;2.50;;;27.40;99.90;;;;;;4994796;28;20019;-50
2022/08/15 03:09:14;;;;;;;8.68;2.13;;;27.40;99.90;;;;;;4994793;28;20545;-50
2022/08/15 03:11:40;;;;;;;;;;;27.40;99.90;;;;;;4995209;28;20034;-50
2022/08/15 03:14:08;;;;;;;4.32;2.78;;;27.40;99.90;;;;;;4994707;28;19956;-50
2022/08/15 03:16:37;;;;;;;6.32;2.53;;;27.40;99.90;;;;;;4994773;28;20030;-50
2022/08/15 03:19:04;;;;;;;9.10;1.80;;;27.40;99.90;;;;;;4994725;28;20398;-50
2022/08/15 03:21:30;;;;;;;5.30;1.80;;;27.40;99.90;;;;;;5009952;28;20113;-51
2022/08/15 03:23:55;;;;;;;2.83;2.00;;;27.40;99.90;;;;;;4994606;28;20045;-52
2022/08/15 03:26:25;;;;;;;5.10;1.90;;;27.40;99.90;;;;;;4994609;28;20027;-51
2022/08/15 03:28:52;;;;;;;5.68;2.00;;;27.50;99.90;;;;;;4994434;28;20088;-51
2022/08/15 03:31:18;;;;;;;2.83;2.00;;;27.50;99.90;;;;;;4994467;28;20034;-51
2022/08/15 03:33:45;;;;;;;7.85;2.55;;;27.50;99.90;;;;;;4994327;28;20038;-52
2022/08/15 03:36:13;;;;;;;3.05;1.60;;;27.50;99.90;;;;;;4994371;28;20041;-52
2022/08/15 03:38:39;;;;;;;4.55;2.17;;;27.60;99.90;;;;;;4994235;28;20160;-51
2022/08/15 03:41:08;;;;;;;6.13;2.10;;;27.60;99.90;;;;;;5009359;28;20052;-52
2022/08/15 03:43:37;;;;;;;5.00;2.20;;;27.60;99.90;;;;;;4994316;28;20093;-51
2022/08/15 03:46:10;;;;;;;7.40;2.20;;;27.60;99.90;;;;;;4994358;28;20101;-51
2022/08/15 03:48:42;;;;;;;4.53;2.35;;;27.60;99.90;;;;;;4994123;28;20494;-50
2022/08/15 03:51:10;;;;;;;2.70;1.90;;;27.60;99.90;;;;;;4993963;28;20062;-50
2022/08/15 03:53:43;;;;;;;6.72;3.08;;;27.50;99.90;;;;;;4994123;28;20037;-50
2022/08/15 03:56:09;;;;;;;6.03;2.42;;;27.50;99.90;;;;;;4993839;28;20019;-50
2022/08/15 03:58:36;;;;;;;5.55;2.40;;;27.50;99.90;;;;;;4993868;28;20026;-50
2022/08/15 04:01:17;;;;;;;4.18;1.92;;;27.40;99.90;;;;;;5006460;23;20077;-51
2022/08/15 04:03:47;;;;;;;5.38;2.65;;;27.40;99.90;;;;;;4993735;28;20030;-53
2022/08/15 04:06:16;;;;;;;6.45;2.35;;;27.40;99.90;;;;;;4993716;28;20015;-52
2022/08/15 04:08:44;;;;;;;5.03;2.22;;;27.40;99.90;;;;;;4993647;28;20030;-51
2022/08/15 04:11:09;;;;;;;5.60;2.15;;;27.30;99.90;;;;;;4993806;28;20035;-51
2022/08/15 04:13:36;;;;;;;4.35;1.88;;;27.30;99.90;;;;;;4993812;28;20553;-51
2022/08/15 04:16:02;;;;;;;3.72;1.48;;;27.20;99.90;;;;;;4993608;28;20440;-51
2022/08/15 04:18:29;;;;;;;3.83;1.93;;;27.20;99.90;;;;;;4993613;28;20137;-51
2022/08/15 04:20:58;;;;;;;4.25;2.20;;;27.20;99.90;;;;;;4993364;28;20033;-51
2022/08/15 04:23:24;;;;;;;4.15;1.58;;;27.20;99.90;;;;;;4993505;28;20026;-51
2022/08/15 04:25:51;;;;;;;4.75;1.60;;;27.30;99.90;;;;;;4993423;28;20026;-51
2022/08/15 04:28:18;;;;;;;4.78;2.45;;;27.30;99.90;;;;;;4993282;28;20499;-51
2022/08/15 04:30:45;;;;;;;;;;;27.40;99.90;;;;;;4993632;28;20483;-51
2022/08/15 04:33:17;;;;;;;6.97;2.28;;;27.40;99.90;;;;;;4993491;28;20403;-52
2022/08/15 04:36:09;;;;;;;3.05;2.00;;;27.30;99.90;;;;;;4993158;28;20406;-51
2022/08/15 04:38:37;;;;;;;5.72;1.83;;;27.30;99.90;;;;;;4988637;28;20050;-51
2022/08/15 04:41:04;;;;;;;;;;;27.30;99.90;;;;;;4993608;28;20368;-51
2022/08/15 04:43:31;;;;;;;4.07;1.80;;;27.40;99.90;;;;;;4993018;28;19906;-51
2022/08/15 04:45:57;;;;;;;;;;;27.40;99.90;;;;;;4993442;28;20027;-52
2022/08/15 04:48:25;;;;;;;8.35;3.00;;;27.40;99.90;;;;;;4993117;28;19960;-51
2022/08/15 04:50:53;;;;;;;6.28;2.63;;;27.40;99.90;;;;;;4992690;28;20491;-51
2022/08/15 04:53:25;;;;;;;8.27;2.80;;;27.40;99.90;;;;;;4992864;28;20372;-52
2022/08/15 04:55:52;;;;;;;8.80;2.67;;;27.30;99.90;;;;;;4992757;28;20026;-51
2022/08/15 04:58:18;;;;;;;14.82;3.72;;;27.20;99.90;;;;;;4991531;28;20028;-51
2022/08/15 05:01:11;;;;;;;10.65;2.92;;;27.20;99.90;;;;;;4991109;28;20054;-51
2022/08/15 05:03:37;;;;;;;11.00;4.05;;;27.10;99.90;;;;;;4990831;28;20036;-52
2022/08/15 05:06:06;;;;;;;12.90;3.60;;;27.00;99.90;;;;;;4991438;28;20116;-51
2022/08/15 05:08:34;;;;;;;11.45;2.90;;;27.00;99.90;;;;;;4992525;28;20077;-52
2022/08/15 05:11:07;;;;;;;7.60;2.40;;;27.00;99.90;;;;;;4991806;28;20530;-52
2022/08/15 05:13:37;;;;;;;7.13;2.72;;;26.90;99.90;;;;;;4992252;28;20027;-51
2022/08/15 05:16:07;;;;;;;6.65;2.75;;;26.90;99.90;;;;;;4992404;28;20026;-51
2022/08/15 05:18:35;;;;;;;6.80;2.47;;;26.90;99.90;;;;;;4992423;28;20419;-51
2022/08/15 05:21:01;;;;;;;7.55;2.33;;;26.80;99.90;;;;;;4992448;28;20026;-51
2022/08/15 05:23:28;;;;;;;6.75;2.63;;;26.80;99.90;;;;;;4992426;28;20037;-51
2022/08/15 05:25:57;;;;;;;7.65;2.90;;;26.70;99.90;;;;;;4991160;28;20022;-51
2022/08/15 05:28:24;;;;;;;12.10;2.75;;;26.70;99.90;;;;;;4992015;28;20049;-51
2022/08/15 05:30:51;;;;;;;11.32;3.20;;;26.70;99.90;;;;;;4992071;28;20041;-51
2022/08/15 05:33:21;;;;;;;10.68;2.70;;;26.70;99.90;;;;;;4991995;28;20030;-51
2022/08/15 05:35:53;;;;;;;10.73;3.00;;;26.70;99.90;;;;;;4992198;28;20065;-52
2022/08/15 05:38:23;;;;;;;8.18;4.32;;;26.70;99.90;;;;;;4991993;28;20041;-52
2022/08/15 05:41:00;;;;;;;5.03;2.22;;;26.70;99.90;;;;;;4992032;28;20026;-52
2022/08/15 05:43:29;;;;;;;;;;;26.70;99.90;;;;;;4992422;28;20030;-51
2022/08/15 05:46:26;;;;;;;14.30;3.08;;;26.70;99.90;;;;;;4992016;28;19928;-52
2022/08/15 05:49:15;;;;;;;8.60;2.40;;;26.70;99.90;;;;;;4960715;28;20034;-51
2022/08/15 05:51:46;;;;;;;12.55;2.50;;;26.70;99.90;;;;;;4991931;28;20038;-51
2022/08/15 05:54:28;;;;;;;3.97;2.30;;;26.80;99.90;;;;;;4991821;28;20022;-51
2022/08/15 05:57:05;;;;;;;9.50;2.42;;;26.80;99.90;;;;;;4990398;28;20034;-52
2022/08/15 05:59:40;;;;;;;15.23;2.57;;;26.80;99.90;;;;;;4991766;28;20058;-52
2022/08/15 06:02:34;;;;;;;6.57;2.00;;;26.80;99.90;;;;;;4991623;28;20030;-51
2022/08/15 06:05:23;;;;;;;7.10;2.10;;;26.90;99.90;;;;;;4987640;28;20038;-52
2022/08/15 06:07:50;;;;;;;15.75;3.05;;;26.90;99.90;;;;;;4991672;28;20076;-52
2022/08/15 06:10:39;;;;;;;5.38;1.92;;;26.90;99.90;;;;;;4991579;28;20482;-51
2022/08/15 06:13:13;;;;;;;9.27;2.78;;;27.00;99.90;;;;;;4991620;28;20027;-52
2022/08/15 06:15:50;;;;;;;6.25;2.10;;;27.00;99.90;;;;;;4991633;28;20383;-52
2022/08/15 06:18:18;;;;;;;6.00;2.80;;;27.00;99.90;;;;;;4991629;28;20025;-52
2022/08/15 06:20:53;;;;;;;11.95;3.15;;;27.00;99.90;;;;;;4992624;28;20034;-52
2022/08/15 06:23:27;;;;;;;5.85;2.55;;;27.00;99.90;;;;;;4992073;28;20111;-52
2022/08/15 06:26:31;;;;;;;8.18;2.38;;;27.10;99.90;;;;;;4987181;28;20526;-52
2022/08/15 06:29:20;;;;;;;6.82;2.28;;;27.10;99.90;;;;;;4983778;28;20030;-52
2022/08/15 06:32:02;;;;;;;6.10;2.50;;;27.10;99.90;;;;;;4985099;28;20027;-51
2022/08/15 06:35:04;;;;;;;7.07;3.17;;;27.20;99.90;;;;;;4985254;28;20498;-52
2022/08/15 06:37:57;;;;;;;8.23;3.30;;;27.10;99.90;;;;;;4985438;28;20030;-52
2022/08/15 06:40:50;;;;;;;13.65;5.55;;;27.20;99.90;;;;;;5009661;28;20062;-52
2022/08/15 06:43:16;;;;;;;7.90;3.58;;;27.20;99.90;;;;;;4993439;28;20022;-52
2022/08/15 06:45:46;;;;;;;10.27;3.95;;;27.20;99.90;;;;;;4993308;28;20026;-52
2022/08/15 06:48:25;;;;;;;50.45;31.38;;;27.30;99.90;;;;;;4993436;28;20432;-52
2022/08/15 06:50:54;;;;;;;12.30;4.10;;;27.30;99.90;;;;;;4992991;28;20111;-52
2022/08/15 06:53:31;;;;;;;28.88;11.57;;;27.30;99.90;;;;;;4992988;28;20023;-52
2022/08/15 06:56:08;;;;;;;13.07;4.30;;;27.40;99.90;;;;;;4993276;28;20030;-52
2022/08/15 06:58:46;;;;;;;8.95;3.47;;;27.40;99.90;;;;;;4994085;28;20038;-52
2022/08/15 07:01:21;;;;;;;14.77;4.93;;;27.40;99.90;;;;;;4993625;28;20042;-52
2022/08/15 07:04:01;;;;;;;14.95;4.47;;;27.40;99.90;;;;;;4994939;28;20019;-52
2022/08/15 07:06:49;;;;;;;10.68;2.88;;;27.40;99.90;;;;;;4994945;28;20068;-52
2022/08/15 07:09:24;;;;;;;10.50;3.30;;;27.40;99.90;;;;;;4993589;28;20058;-52
2022/08/15 07:12:13;;;;;;;9.32;2.78;;;27.40;99.90;;;;;;4994738;28;20505;-52
2022/08/15 07:15:08;;;;;;;7.57;3.03;;;27.50;99.90;;;;;;4994240;28;20541;-51
2022/08/15 07:17:51;;;;;;;5.07;2.78;;;27.50;99.90;;;;;;4994135;28;20265;-52
2022/08/15 07:20:17;;;;;;;10.32;3.45;;;27.50;99.90;;;;;;4994616;28;20022;-52
2022/08/15 07:22:44;;;;;;;6.75;2.75;;;27.50;99.90;;;;;;4994698;28;20058;-52
2022/08/15 07:25:16;;;;;;;6.13;2.60;;;27.50;99.90;;;;;;4994413;28;20018;-52
2022/08/15 07:27:55;;;;;;;4.90;2.40;;;27.60;99.90;;;;;;4994328;28;20081;-52
2022/08/15 07:30:36;;;;;;;5.68;2.30;;;27.60;99.90;;;;;;4994186;28;20069;-53
2022/08/15 07:33:02;;;;;;;5.20;2.13;;;27.60;99.90;;;;;;4993589;28;20058;-52
2022/08/15 07:35:32;;;;;;;5.20;2.90;;;27.60;99.90;;;;;;4994167;28;20109;-52
2022/08/15 07:38:06;;;;;;;5.13;2.38;;;27.70;99.90;;;;;;4994319;28;20018;-52
2022/08/15 07:40:36;;;;;;;6.60;2.78;;;27.70;99.90;;;;;;4994216;28;20033;-52
2022/08/15 07:43:25;;;;;;;5.25;1.95;;;27.80;99.90;;;;;;4994113;28;20026;-52
2022/08/15 07:46:14;;;;;;;5.20;2.42;;;27.90;99.90;;;;;;4993850;28;20050;-52
2022/08/15 07:48:41;;;;;;;5.72;2.67;;;28.00;99.90;;;;;;4994075;28;20026;-53
2022/08/15 07:51:22;;;;;;;8.48;2.35;;;28.00;99.90;;;;;;4994037;28;20034;-52
2022/08/15 07:54:01;;;;;;;5.10;1.88;;;28.00;99.90;;;;;;4994071;28;20033;-52
2022/08/15 07:56:30;;;;;;;5.00;2.30;;;28.10;99.90;;;;;;4993784;28;20530;-52
2022/08/15 07:59:13;;;;;;;3.95;2.20;;;28.10;99.90;;;;;;4993806;28;20030;-52
2022/08/15 08:01:39;;;;;;;5.55;2.65;;;28.10;99.90;;;;;;4993456;28;20058;-52
2022/08/15 08:04:19;;;;;;;6.00;2.60;;;28.20;99.90;;;;;;4993738;28;20535;-53
2022/08/15 08:07:17;;;;;;;4.35;2.45;;;28.20;99.90;;;;;;4993573;28;20030;-53
2022/08/15 08:09:55;;;;;;;5.78;2.38;;;28.30;99.90;;;;;;4993292;28;20116;-53
2022/08/15 08:12:42;;;;;;;3.97;2.05;;;28.30;99.90;;;;;;4993615;28;20109;-53
2022/08/15 08:15:20;;;;;;;6.45;3.40;;;28.40;99.90;;;;;;4992580;28;20019;-52
2022/08/15 08:17:57;;;;;;;7.97;2.53;;;28.40;99.90;;;;;;4993562;28;20422;-53
2022/08/15 08:20:46;;;;;;;4.57;2.50;;;28.50;99.90;;;;;;4993434;28;20186;-53
2022/08/15 08:23:19;;;;;;;12.30;3.67;;;28.50;99.90;;;;;;4993566;28;20030;-52
2022/08/15 08:26:17;;;;;;;13.32;3.13;;;28.50;99.90;;;;;;4993302;28;20038;-52
2022/08/15 08:28:48;;;;;;;11.00;3.83;;;28.50;99.90;;;;;;4993159;28;20026;-52
2022/08/15 08:31:26;;;;;;;7.25;3.25;;;28.50;99.90;;;;;;4993187;28;20045;-52
2022/08/15 08:34:08;;;;;;;7.63;2.92;;;28.50;99.90;;;;;;4993254;28;20022;-53
2022/08/15 08:37:02;;;;;;;13.23;3.10;;;28.40;99.90;;;;;;4993262;28;20037;-53
2022/08/15 08:39:55;;;;;;;15.68;3.28;;;28.40;99.90;;;;;;4993026;28;20514;-52
2022/08/15 08:42:45;;;;;;;14.10;3.53;;;28.40;99.90;;;;;;4993152;28;20048;-52
2022/08/15 08:45:38;;;;;;;11.07;3.47;;;28.30;99.90;;;;;;4992021;28;20022;-52
2022/08/15 08:48:26;;;;;;;15.82;3.72;;;28.30;99.90;;;;;;4992994;28;20034;-53
2022/08/15 08:50:58;;;;;;;;;;;28.20;99.90;;;;;;4992117;28;20085;-52
2022/08/15 08:53:48;;;;;;;10.55;3.40;;;28.20;99.90;;;;;;4992850;28;19910;-53
2022/08/15 08:56:46;;;;;;;9.10;3.88;;;28.10;99.90;;;;;;4993094;28;20088;-53
2022/08/15 08:59:46;;;;;;;12.50;4.57;;;28.10;99.90;;;;;;4992650;28;20030;-52
2022/08/15 09:02:26;;;;;;;16.10;4.55;;;28.00;99.90;;;;;;4992741;28;20065;-53
2022/08/15 09:04:57;;;;;;;22.17;4.32;;;27.90;99.90;;;;;;4992949;28;20418;-52
2022/08/15 09:07:37;;;;;;;11.15;4.20;;;27.80;99.90;;;;;;5060971;22;1417265;-50
2022/08/15 09:10:07;;;;;;;14.20;4.72;;;27.80;99.90;;;;;;5108951;28;20070;-50
2022/08/15 09:15:28;;;;;;;12.27;3.67;;;27.70;99.90;;;;;;5109039;28;20080;-50
2022/08/15 09:18:01;;;;;;;14.10;4.40;;;27.70;99.90;;;;;;5090661;28;20031;-51
2022/08/15 09:20:37;;;;;;;16.65;4.93;;;27.70;99.90;;;;;;5108791;28;20028;-50
2022/08/15 09:23:06;;;;;;;10.30;4.93;;;27.70;99.90;;;;;;5090411;28;20107;-51
2022/08/15 09:25:35;;;;;;;18.08;4.50;;;27.70;99.90;;;;;;5108678;28;20020;-51
2022/08/15 09:28:25;;;;;;;14.80;4.47;;;27.70;99.90;;;;;;5108520;28;20041;-50
2022/08/15 09:30:52;;;;;;;16.08;5.45;;;27.70;99.90;;;;;;5108513;28;20490;-51
2022/08/15 09:33:36;;;;;;;17.17;4.28;;;27.70;99.90;;;;;;5108326;28;20526;-49
2022/08/15 09:36:38;;;;;;;20.02;4.28;;;27.70;99.90;;;;;;5108237;28;20397;-51
2022/08/15 09:39:28;;;;;;;11.23;4.43;;;27.70;99.90;;;;;;5108517;28;20020;-50
2022/08/15 09:42:06;;;;;;;24.13;5.85;;;27.60;99.90;;;;;;5108564;28;20050;-50
2022/08/15 09:44:50;;;;;;;22.50;5.38;;;27.60;99.90;;;;;;5108250;28;20032;-50
2022/08/15 09:47:27;;;;;;;19.70;6.03;;;27.60;99.90;;;;;;5108153;28;20039;-50
2022/08/15 09:50:02;;;;;;;18.00;5.03;;;27.60;99.90;;;;;;5108262;28;20448;-50
2022/08/15 09:52:39;;;;;;;12.38;4.32;;;27.70;99.90;;;;;;5108138;28;20028;-51
2022/08/15 09:55:41;;;;;;;13.77;4.95;;;27.70;99.90;;;;;;5089732;28;20048;-50
2022/08/15 09:58:20;;;;;;;13.10;5.72;;;27.70;99.90;;;;;;5107895;28;20032;-50
2022/08/15 10:01:00;;;;;;;16.60;4.47;;;27.80;99.90;;;;;;5107745;28;20380;-50
2022/08/15 10:03:45;;;;;;;12.13;3.38;;;27.80;99.90;;;;;;5107982;28;20024;-50
2022/08/15 10:06:17;;;;;;;11.73;4.32;;;27.80;99.90;;;;;;5107360;28;20426;-50
2022/08/15 10:08:52;;;;;;;17.38;5.03;;;27.90;99.90;;;;;;5107867;28;20376;-50
2022/08/15 10:11:27;;;;;;;13.73;6.60;;;27.90;99.90;;;;;;5107787;28;20495;-50
2022/08/15 10:14:14;;;;;;;16.85;5.95;;;27.90;99.90;;;;;;5090247;28;20031;-50
2022/08/15 10:16:40;;;;;;;16.88;5.65;;;27.90;99.90;;;;;;5106788;28;20020;-50
2022/08/15 10:19:11;;;;;;;17.17;4.88;;;27.90;99.90;;;;;;5075460;28;20149;-50
2022/08/15 10:21:44;;;;;;;11.35;3.70;;;28.00;99.90;;;;;;5093784;28;20028;-50
2022/08/15 10:24:33;;;;;;;15.15;4.90;;;28.00;99.90;;;;;;5093859;28;20017;-51
2022/08/15 10:27:17;;;;;;;17.10;4.30;;;28.00;99.90;;;;;;5093750;28;20043;-50
2022/08/15 10:29:49;;;;;;;14.65;4.55;;;28.10;99.90;;;;;;5093734;28;20020;-50
2022/08/15 10:32:29;;;;;;;15.20;5.18;;;28.10;99.90;;;;;;5093824;28;20028;-50
2022/08/15 10:35:24;;;;;;;12.82;3.75;;;28.10;99.90;;;;;;5094006;28;20031;-50
2022/08/15 10:38:00;;;;;;;19.20;6.68;;;28.10;99.90;;;;;;5082978;28;20036;-50
2022/08/15 10:40:31;;;;;;;11.80;4.05;;;28.20;99.90;;;;;;5093729;28;20468;-50
2022/08/15 10:43:00;;;;;;;11.18;4.57;;;28.20;99.90;;;;;;5093632;28;20024;-51
2022/08/15 10:45:28;;;;;;;12.50;3.63;;;28.20;99.90;;;;;;5093560;28;20035;-50
2022/08/15 10:48:42;;;;;;;10.43;3.92;;;28.20;99.90;;;;;;5093259;28;20114;-49
2022/08/15 10:51:23;;;;;;;17.75;3.70;;;28.20;99.90;;;;;;5093366;28;20016;-50
2022/08/15 10:54:22;;;;;;;15.88;4.18;;;28.30;99.90;;;;;;5093472;28;20020;-50
2022/08/15 10:56:56;;;;;;;10.98;3.50;;;28.30;99.90;;;;;;5075045;28;20111;-51
2022/08/15 10:59:27;;;;;;;10.55;3.63;;;28.30;99.90;;;;;;5093317;28;20038;-49
2022/08/15 11:02:18;;;;;;;16.92;4.22;;;28.30;99.90;;;;;;5093235;28;20091;-51
2022/08/15 11:04:44;;;;;;;15.77;5.60;;;28.30;99.90;;;;;;5093278;28;20122;-50
2022/08/15 11:07:29;;;;;;;16.65;4.70;;;28.30;99.90;;;;;;5092895;28;20052;-50
2022/08/15 11:09:58;;;;;;;15.40;4.93;;;28.30;99.90;;;;;;5074971;28;20173;-50
2022/08/15 11:12:28;;;;;;;13.68;3.97;;;28.30;99.90;;;;;;5093113;28;20024;-50
2022/08/15 11:14:59;;;;;;;8.30;3.92;;;28.40;99.90;;;;;;5092979;28;20093;-51
2022/08/15 11:17:30;;;;;;;11.02;4.20;;;28.30;99.90;;;;;;5092990;28;20418;-51
2022/08/15 11:20:15;;;;;;;13.02;4.38;;;28.30;99.90;;;;;;5092896;28;20137;-50
2022/08/15 11:23:28;;;;;;;15.70;3.80;;;28.40;99.90;;;;;;5092927;28;20032;-50
2022/08/15 11:25:56;;;;;;;12.63;5.50;;;28.30;99.90;;;;;;5047555;28;20377;-51
2022/08/15 11:28:25;;;;;;;15.63;5.65;;;28.40;99.90;;;;;;5092395;28;20028;-50
2022/08/15 11:31:02;;;;;;;15.32;4.03;;;28.40;99.90;;;;;;5091963;28;20487;-50
2022/08/15 11:33:41;;;;;;;14.60;4.20;;;28.40;99.90;;;;;;5092664;28;20024;-51
2022/08/15 11:36:23;;;;;;;15.55;4.15;;;28.40;99.90;;;;;;5092323;28;20112;-51
2022/08/15 11:38:55;;;;;;;12.57;3.60;;;28.40;99.90;;;;;;5092493;28;20053;-51
2022/08/15 11:41:29;;;;;;;10.75;3.83;;;28.40;99.90;;;;;;5092611;28;20016;-50
2022/08/15 11:43:58;;;;;;;12.38;4.40;;;28.40;99.90;;;;;;5074518;28;20502;-51
2022/08/15 11:46:25;;;;;;;12.98;4.07;;;28.50;99.90;;;;;;5092841;28;20065;-51
2022/08/15 11:49:08;;;;;;;;;;;28.50;99.90;;;;;;5092680;28;20091;-51
2022/08/15 11:51:40;;;;;;;15.32;6.53;;;28.50;99.90;;;;;;5092410;28;19904;-50
2022/08/15 11:54:12;;;;;;;16.90;5.65;;;28.60;99.90;;;;;;5092200;28;20034;-50
2022/08/15 11:56:51;;;;;;;20.92;6.45;;;28.60;99.90;;;;;;5092119;28;20020;-50
2022/08/15 11:59:25;;;;;;;17.98;5.22;;;28.50;99.90;;;;;;5092001;28;20028;-50
2022/08/15 12:02:00;;;;;;;14.38;4.55;;;28.60;99.90;;;;;;5091984;28;20027;-51
2022/08/15 12:04:33;;;;;;;17.85;6.35;;;28.60;99.90;;;;;;5091949;28;20036;-50
2022/08/15 12:07:27;;;;;;;12.50;5.60;;;28.60;99.90;;;;;;5091709;28;20047;-50
2022/08/15 12:10:06;;;;;;;17.15;6.80;;;28.70;99.90;;;;;;5091785;28;20032;-50
2022/08/15 12:12:42;;;;;;;17.30;4.82;;;28.70;99.90;;;;;;5092003;28;20062;-50
2022/08/15 12:15:15;;;;;;;8.80;3.80;;;28.70;99.90;;;;;;5091688;28;20031;-50
2022/08/15 12:17:48;;;;;;;11.23;3.78;;;28.80;99.90;;;;;;5091540;28;20103;-50
2022/08/15 12:20:16;;;;;;;12.20;5.78;;;28.80;99.90;;;;;;5091599;28;20024;-50
2022/08/15 12:22:43;;;;;;;17.33;7.85;;;28.80;99.90;;;;;;5091637;28;20024;-50
2022/08/15 12:25:10;;;;;;;23.73;13.68;;;28.90;99.90;;;;;;5091694;28;20020;-49
2022/08/15 12:27:37;;;;;;;14.38;5.55;;;28.90;99.90;;;;;;5091818;28;20036;-50
2022/08/15 12:30:06;;;;;;;12.63;5.13;;;28.90;99.90;;;;;;5091760;28;20012;-50
2022/08/15 12:32:32;;;;;;;14.65;5.75;;;28.90;99.90;;;;;;5091690;28;20278;-51
2022/08/15 12:34:59;;;;;;;22.52;9.27;;;28.90;99.90;;;;;;5091606;28;20648;-51
2022/08/15 12:37:27;;;;;;;17.55;7.20;;;29.00;99.90;;;;;;5091637;28;20031;-51
2022/08/15 12:39:54;;;;;;;21.25;8.80;;;29.00;99.90;;;;;;5091316;28;20113;-50
2022/08/15 12:42:30;;;;;;;17.67;7.28;;;29.00;99.90;;;;;;5091469;28;20024;-50
2022/08/15 12:45:26;;;;;;;12.77;4.15;;;29.10;99.90;;;;;;5091476;28;20035;-51
2022/08/15 12:47:54;;;;;;;18.73;7.55;;;29.10;99.90;;;;;;5069522;28;20044;-51
2022/08/15 12:50:20;;;;;;;15.88;7.97;;;29.10;99.90;;;;;;5091393;28;20032;-51
2022/08/15 12:52:48;;;;;;;14.40;5.68;;;29.10;99.90;;;;;;5091483;28;20099;-51
2022/08/15 12:55:13;;;;;;;;;;;29.10;99.90;;;;;;5091935;28;20487;-51
2022/08/15 12:57:39;;;;;;;17.30;5.38;;;29.20;99.90;;;;;;5091269;28;19908;-52
2022/08/15 13:00:07;;;;;;;20.25;4.50;;;29.20;99.90;;;;;;5091412;28;20127;-52
2022/08/15 13:02:36;;;;;;;17.48;5.43;;;29.20;99.90;;;;;;5091390;28;20031;-51
2022/08/15 13:05:06;;;;;;;12.27;5.80;;;29.20;99.90;;;;;;5091093;28;20024;-51
2022/08/15 13:07:32;;;;;;;12.25;5.15;;;29.20;99.90;;;;;;5091146;28;20395;-50
2022/08/15 13:09:59;;;;;;;14.63;7.20;;;29.20;99.90;;;;;;5091219;28;20378;-51
2022/08/15 13:12:24;;;;;;;17.25;5.57;;;29.20;99.90;;;;;;5091202;28;20023;-52
2022/08/15 13:14:50;;;;;;;15.23;7.28;;;29.30;99.90;;;;;;5091190;28;20527;-52
2022/08/15 13:17:16;;;;;;;14.70;5.07;;;29.30;99.90;;;;;;5091095;28;20030;-51
2022/08/15 13:25:15;;;;;;;14.82;4.95;;;29.50;99.90;;;;;;5091193;28;20039;-51
2022/08/15 13:27:44;;;;;;;11.23;5.07;;;29.50;99.90;;;;;;5091208;28;20032;-51
2022/08/15 13:30:12;;;;;;;16.98;5.53;;;29.60;99.90;;;;;;5091236;28;20020;-51
2022/08/15 13:32:38;;;;;;;12.38;4.85;;;29.60;99.90;;;;;;5091188;28;20020;-51
2022/08/15 13:35:05;;;;;;;17.40;4.68;;;29.60;99.90;;;;;;5090936;28;20016;-51